sensor_id;sensor_type;location;lat;lon;timestamp;temperature;humidity
16315;DHT22;8266;52.150;4.768;2022-10-17T00:00:37;17.50;99.90
16315;DHT22;8266;52.150;4.768;2022-10-17T00:03:04;17.50;99.90
16315;DHT22;8266;52.150;4.768;2022-10-17T00:05:32;17.50;99.90
16315;DHT22;8266;52.150;4.768;2022-10-17T00:08:01;17.50;99.90
16315;DHT22;8266;52.150;4.768;2022-10-17T00:10:28;17.50;99.90
16315;DHT22;8266;52.150;4.768;2022-10-17T00:12:55;17.40;99.90
16315;DHT22;8266;52.150;4.768;2022-10-17T00:15:22;17.40;99.90
16315;DHT22;8266;52.150;4.768;2022-10-17T00:17:51;17.40;99.90
16315;DHT22;8266;52.150;4.768;2022-10-17T00:20:18;17.30;99.90
16315;DHT22;8266;52.150;4.768;2022-10-17T00:22:45;17.30;99.90
16315;DHT22;8266;52.150;4.768;2022-10-17T00:25:12;17.30;99.90
16315;DHT22;8266;52.150;4.768;2022-10-17T00:27:40;17.30;99.90
16315;DHT22;8266;52.150;4.768;2022-10-17T00:30:11;17.30;99.90
16315;DHT22;8266;52.150;4.768;2022-10-17T00:32:38;17.30;99.90
16315;DHT22;8266;52.150;4.768;2022-10-17T00:35:07;17.20;99.90
16315;DHT22;8266;52.150;4.768;2022-10-17T00:37:34;17.20;99.90
16315;DHT22;8266;52.150;4.768;2022-10-17T00:40:01;17.20;99.90
16315;DHT22;8266;52.150;4.768;2022-10-17T00:42:29;17.20;99.90
16315;DHT22;8266;52.150;4.768;2022-10-17T00:45:14;17.20;99.90
16315;DHT22;8266;52.150;4.768;2022-10-17T00:47:45;17.20;99.90
16315;DHT22;8266;52.150;4.768;2022-10-17T00:50:15;17.10;99.90
16315;DHT22;8266;52.150;4.768;2022-10-17T00:52:42;17.10;99.90
16315;DHT22;8266;52.150;4.768;2022-10-17T00:55:13;17.10;99.90
16315;DHT22;8266;52.150;4.768;2022-10-17T00:57:43;17.10;99.90
16315;DHT22;8266;52.150;4.768;2022-10-17T01:00:11;17.10;99.90
16315;DHT22;8266;52.150;4.768;2022-10-17T01:02:39;17.10;99.90
16315;DHT22;8266;52.150;4.768;2022-10-17T01:05:08;17.10;99.90
16315;DHT22;8266;52.150;4.768;2022-10-17T01:07:37;17.10;99.90
16315;DHT22;8266;52.150;4.768;2022-10-17T01:10:06;17.00;99.90
16315;DHT22;8266;52.150;4.768;2022-10-17T01:12:45;17.10;99.90
16315;DHT22;8266;52.150;4.768;2022-10-17T01:15:21;17.00;99.90
16315;DHT22;8266;52.150;4.768;2022-10-17T01:17:59;17.10;99.90
16315;DHT22;8266;52.150;4.768;2022-10-17T01:24:03;17.10;99.90
16315;DHT22;8266;52.150;4.768;2022-10-17T01:26:43;17.10;99.90
16315;DHT22;8266;52.150;4.768;2022-10-17T01:29:33;17.00;99.90
16315;DHT22;8266;52.150;4.768;2022-10-17T01:32:12;17.10;99.90
16315;DHT22;8266;52.150;4.768;2022-10-17T01:34:44;17.10;99.90
16315;DHT22;8266;52.150;4.768;2022-10-17T01:37:19;17.10;99.90
16315;DHT22;8266;52.150;4.768;2022-10-17T01:39:50;17.10;99.90
16315;DHT22;8266;52.150;4.768;2022-10-17T01:42:22;17.00;99.90
16315;DHT22;8266;52.150;4.768;2022-10-17T01:44:54;17.10;99.90
16315;DHT22;8266;52.150;4.768;2022-10-17T01:47:25;17.10;99.90
16315;DHT22;8266;52.150;4.768;2022-10-17T01:49:57;17.10;99.90
16315;DHT22;8266;52.150;4.768;2022-10-17T01:52:29;17.00;99.90
16315;DHT22;8266;52.150;4.768;2022-10-17T01:55:03;17.10;99.90
16315;DHT22;8266;52.150;4.768;2022-10-17T01:57:35;17.00;99.90
16315;DHT22;8266;52.150;4.768;2022-10-17T02:00:07;17.00;99.90
16315;DHT22;8266;52.150;4.768;2022-10-17T02:02:36;17.00;99.90
16315;DHT22;8266;52.150;4.768;2022-10-17T02:05:04;17.00;99.90
16315;DHT22;8266;52.150;4.768;2022-10-17T02:07:31;17.00;99.90
16315;DHT22;8266;52.150;4.768;2022-10-17T02:09:58;17.00;99.90
16315;DHT22;8266;52.150;4.768;2022-10-17T02:12:44;17.00;99.90
16315;DHT22;8266;52.150;4.768;2022-10-17T02:15:27;17.00;99.90
16315;DHT22;8266;52.150;4.768;2022-10-17T02:18:11;17.00;99.90
16315;DHT22;8266;52.150;4.768;2022-10-17T02:20:49;17.00;99.90
16315;DHT22;8266;52.150;4.768;2022-10-17T02:23:22;17.00;99.90
16315;DHT22;8266;52.150;4.768;2022-10-17T02:25:58;17.00;99.90
16315;DHT22;8266;52.150;4.768;2022-10-17T02:28:30;17.00;99.90
16315;DHT22;8266;52.150;4.768;2022-10-17T02:31:02;17.00;99.90
16315;DHT22;8266;52.150;4.768;2022-10-17T02:33:36;17.00;99.90
16315;DHT22;8266;52.150;4.768;2022-10-17T02:36:09;17.00;99.90
16315;DHT22;8266;52.150;4.768;2022-10-17T02:38:38;17.10;99.90
16315;DHT22;8266;52.150;4.768;2022-10-17T02:41:09;17.10;99.90
16315;DHT22;8266;52.150;4.768;2022-10-17T02:43:37;17.10;99.90
16315;DHT22;8266;52.150;4.768;2022-10-17T02:46:05;17.10;99.90
16315;DHT22;8266;52.150;4.768;2022-10-17T02:48:37;17.10;99.90
16315;DHT22;8266;52.150;4.768;2022-10-17T02:51:10;17.10;99.90
16315;DHT22;8266;52.150;4.768;2022-10-17T02:53:45;17.20;99.90
16315;DHT22;8266;52.150;4.768;2022-10-17T02:56:18;17.20;99.90
16315;DHT22;8266;52.150;4.768;2022-10-17T02:58:49;17.20;99.90
16315;DHT22;8266;52.150;4.768;2022-10-17T03:01:17;17.20;99.90
16315;DHT22;8266;52.150;4.768;2022-10-17T03:03:47;17.30;99.90
16315;DHT22;8266;52.150;4.768;2022-10-17T03:06:14;17.30;99.90
16315;DHT22;8266;52.150;4.768;2022-10-17T03:08:41;17.30;99.90
16315;DHT22;8266;52.150;4.768;2022-10-17T03:11:09;17.40;99.90
16315;DHT22;8266;52.150;4.768;2022-10-17T03:13:35;17.40;99.90
16315;DHT22;8266;52.150;4.768;2022-10-17T03:16:02;17.40;99.90
16315;DHT22;8266;52.150;4.768;2022-10-17T03:18:30;17.50;99.90
16315;DHT22;8266;52.150;4.768;2022-10-17T03:20:59;17.50;99.90
16315;DHT22;8266;52.150;4.768;2022-10-17T03:23:26;17.50;99.90
16315;DHT22;8266;52.150;4.768;2022-10-17T03:25:53;17.60;99.90
16315;DHT22;8266;52.150;4.768;2022-10-17T03:28:20;17.60;99.90
16315;DHT22;8266;52.150;4.768;2022-10-17T03:30:47;17.70;99.90
16315;DHT22;8266;52.150;4.768;2022-10-17T03:33:14;17.70;99.90
16315;DHT22;8266;52.150;4.768;2022-10-17T03:35:41;17.70;99.90
16315;DHT22;8266;52.150;4.768;2022-10-17T03:38:09;17.80;99.90
16315;DHT22;8266;52.150;4.768;2022-10-17T03:40:36;17.80;99.90
16315;DHT22;8266;52.150;4.768;2022-10-17T03:43:03;17.80;99.90
16315;DHT22;8266;52.150;4.768;2022-10-17T03:45:30;17.80;99.90
16315;DHT22;8266;52.150;4.768;2022-10-17T03:47:58;17.80;99.90
16315;DHT22;8266;52.150;4.768;2022-10-17T03:50:25;17.80;99.90
16315;DHT22;8266;52.150;4.768;2022-10-17T03:52:52;17.80;99.90
16315;DHT22;8266;52.150;4.768;2022-10-17T03:55:20;17.80;99.90
16315;DHT22;8266;52.150;4.768;2022-10-17T03:57:47;17.90;99.90
16315;DHT22;8266;52.150;4.768;2022-10-17T04:00:14;17.90;99.90
16315;DHT22;8266;52.150;4.768;2022-10-17T04:02:41;17.90;99.90
16315;DHT22;8266;52.150;4.768;2022-10-17T04:05:09;17.90;99.90
16315;DHT22;8266;52.150;4.768;2022-10-17T04:07:36;17.90;99.90
16315;DHT22;8266;52.150;4.768;2022-10-17T04:10:04;17.90;99.90
16315;DHT22;8266;52.150;4.768;2022-10-17T04:12:32;17.90;99.90
16315;DHT22;8266;52.150;4.768;2022-10-17T04:14:59;17.90;99.90
16315;DHT22;8266;52.150;4.768;2022-10-17T04:17:29;17.90;99.90
16315;DHT22;8266;52.150;4.768;2022-10-17T04:19:56;17.90;99.90
16315;DHT22;8266;52.150;4.768;2022-10-17T04:22:23;17.90;99.90
16315;DHT22;8266;52.150;4.768;2022-10-17T04:24:50;17.90;99.90
16315;DHT22;8266;52.150;4.768;2022-10-17T04:27:17;17.90;99.90
16315;DHT22;8266;52.150;4.768;2022-10-17T04:29:45;17.90;99.90
16315;DHT22;8266;52.150;4.768;2022-10-17T04:32:12;17.90;99.90
16315;DHT22;8266;52.150;4.768;2022-10-17T04:34:41;18.00;99.90
16315;DHT22;8266;52.150;4.768;2022-10-17T04:37:08;18.00;99.90
16315;DHT22;8266;52.150;4.768;2022-10-17T04:39:35;18.00;99.90
16315;DHT22;8266;52.150;4.768;2022-10-17T04:42:03;18.00;99.90
16315;DHT22;8266;52.150;4.768;2022-10-17T04:44:31;18.00;99.90
16315;DHT22;8266;52.150;4.768;2022-10-17T04:47:01;18.00;99.90
16315;DHT22;8266;52.150;4.768;2022-10-17T04:49:28;18.00;99.90
16315;DHT22;8266;52.150;4.768;2022-10-17T04:51:55;18.00;99.90
16315;DHT22;8266;52.150;4.768;2022-10-17T04:54:22;18.10;99.90
16315;DHT22;8266;52.150;4.768;2022-10-17T04:56:50;18.10;99.90
16315;DHT22;8266;52.150;4.768;2022-10-17T04:59:17;18.10;99.90
16315;DHT22;8266;52.150;4.768;2022-10-17T05:01:44;18.10;99.90
16315;DHT22;8266;52.150;4.768;2022-10-17T05:04:13;18.10;99.90
16315;DHT22;8266;52.150;4.768;2022-10-17T05:06:39;18.10;99.90
16315;DHT22;8266;52.150;4.768;2022-10-17T05:09:06;18.10;99.90
16315;DHT22;8266;52.150;4.768;2022-10-17T05:11:33;18.10;99.90
16315;DHT22;8266;52.150;4.768;2022-10-17T05:14:01;18.10;99.90
16315;DHT22;8266;52.150;4.768;2022-10-17T05:16:28;18.10;99.90
16315;DHT22;8266;52.150;4.768;2022-10-17T05:18:57;18.10;99.90
16315;DHT22;8266;52.150;4.768;2022-10-17T05:21:27;18.10;99.90
16315;DHT22;8266;52.150;4.768;2022-10-17T05:23:54;18.10;99.90
16315;DHT22;8266;52.150;4.768;2022-10-17T05:26:23;18.10;99.90
16315;DHT22;8266;52.150;4.768;2022-10-17T05:28:50;18.10;99.90
16315;DHT22;8266;52.150;4.768;2022-10-17T05:31:17;18.10;99.90
16315;DHT22;8266;52.150;4.768;2022-10-17T05:33:45;18.20;99.90
16315;DHT22;8266;52.150;4.768;2022-10-17T05:36:12;18.20;99.90
16315;DHT22;8266;52.150;4.768;2022-10-17T05:38:40;18.20;99.90
16315;DHT22;8266;52.150;4.768;2022-10-17T05:41:08;18.20;99.90
16315;DHT22;8266;52.150;4.768;2022-10-17T05:43:35;18.20;99.90
16315;DHT22;8266;52.150;4.768;2022-10-17T05:46:03;18.30;99.90
16315;DHT22;8266;52.150;4.768;2022-10-17T05:48:31;18.20;99.90
16315;DHT22;8266;52.150;4.768;2022-10-17T05:50:59;18.30;99.90
16315;DHT22;8266;52.150;4.768;2022-10-17T05:53:28;18.30;99.90
16315;DHT22;8266;52.150;4.768;2022-10-17T05:55:59;18.30;99.90
16315;DHT22;8266;52.150;4.768;2022-10-17T05:58:27;18.30;99.90
16315;DHT22;8266;52.150;4.768;2022-10-17T06:00:57;18.30;99.90
16315;DHT22;8266;52.150;4.768;2022-10-17T06:03:24;18.40;99.90
16315;DHT22;8266;52.150;4.768;2022-10-17T06:05:52;18.30;99.90
16315;DHT22;8266;52.150;4.768;2022-10-17T06:08:19;18.30;99.90
16315;DHT22;8266;52.150;4.768;2022-10-17T06:10:47;18.30;99.90
16315;DHT22;8266;52.150;4.768;2022-10-17T06:13:16;18.30;99.90
16315;DHT22;8266;52.150;4.768;2022-10-17T06:15:43;18.30;99.90
16315;DHT22;8266;52.150;4.768;2022-10-17T06:18:11;18.30;99.90
16315;DHT22;8266;52.150;4.768;2022-10-17T06:20:38;18.30;99.90
16315;DHT22;8266;52.150;4.768;2022-10-17T06:23:05;18.30;99.90
16315;DHT22;8266;52.150;4.768;2022-10-17T06:25:32;18.30;99.90
16315;DHT22;8266;52.150;4.768;2022-10-17T06:27:59;18.30;99.90
16315;DHT22;8266;52.150;4.768;2022-10-17T06:30:28;18.30;99.90
16315;DHT22;8266;52.150;4.768;2022-10-17T06:32:55;18.30;99.90
16315;DHT22;8266;52.150;4.768;2022-10-17T06:35:22;18.40;99.90
16315;DHT22;8266;52.150;4.768;2022-10-17T06:37:49;18.40;99.90
16315;DHT22;8266;52.150;4.768;2022-10-17T06:40:16;18.30;99.90
16315;DHT22;8266;52.150;4.768;2022-10-17T06:42:43;18.40;99.90
16315;DHT22;8266;52.150;4.768;2022-10-17T06:45:10;18.40;99.90
16315;DHT22;8266;52.150;4.768;2022-10-17T06:47:38;18.40;99.90
16315;DHT22;8266;52.150;4.768;2022-10-17T06:50:06;18.50;99.90
16315;DHT22;8266;52.150;4.768;2022-10-17T06:52:33;18.50;99.90
16315;DHT22;8266;52.150;4.768;2022-10-17T06:55:00;18.50;99.90
16315;DHT22;8266;52.150;4.768;2022-10-17T06:57:27;18.50;99.90
16315;DHT22;8266;52.150;4.768;2022-10-17T06:59:58;18.50;99.90
16315;DHT22;8266;52.150;4.768;2022-10-17T07:02:25;18.50;99.90
16315;DHT22;8266;52.150;4.768;2022-10-17T07:04:54;18.50;99.90
16315;DHT22;8266;52.150;4.768;2022-10-17T07:07:21;18.50;99.90
16315;DHT22;8266;52.150;4.768;2022-10-17T07:09:48;18.50;99.90
16315;DHT22;8266;52.150;4.768;2022-10-17T07:12:15;18.50;99.90
16315;DHT22;8266;52.150;4.768;2022-10-17T07:14:42;18.50;99.90
16315;DHT22;8266;52.150;4.768;2022-10-17T07:17:11;18.50;99.90
16315;DHT22;8266;52.150;4.768;2022-10-17T07:19:38;18.60;99.90
16315;DHT22;8266;52.150;4.768;2022-10-17T07:22:09;18.60;99.90
16315;DHT22;8266;52.150;4.768;2022-10-17T07:24:36;18.60;99.90
16315;DHT22;8266;52.150;4.768;2022-10-17T07:27:03;18.60;99.90
16315;DHT22;8266;52.150;4.768;2022-10-17T07:29:30;18.60;99.90
16315;DHT22;8266;52.150;4.768;2022-10-17T07:31:57;18.60;99.90
16315;DHT22;8266;52.150;4.768;2022-10-17T07:34:24;18.60;99.90
16315;DHT22;8266;52.150;4.768;2022-10-17T07:36:55;18.70;99.90
16315;DHT22;8266;52.150;4.768;2022-10-17T07:39:26;18.70;99.90
16315;DHT22;8266;52.150;4.768;2022-10-17T07:41:53;18.70;99.90
16315;DHT22;8266;52.150;4.768;2022-10-17T07:44:20;18.70;99.90
16315;DHT22;8266;52.150;4.768;2022-10-17T07:46:47;18.70;99.90
16315;DHT22;8266;52.150;4.768;2022-10-17T07:49:14;18.80;99.90
16315;DHT22;8266;52.150;4.768;2022-10-17T07:51:41;18.80;99.90
16315;DHT22;8266;52.150;4.768;2022-10-17T07:54:08;18.80;99.90
16315;DHT22;8266;52.150;4.768;2022-10-17T07:56:36;18.80;99.90
16315;DHT22;8266;52.150;4.768;2022-10-17T07:59:03;18.80;99.90
16315;DHT22;8266;52.150;4.768;2022-10-17T08:01:30;18.80;99.90
16315;DHT22;8266;52.150;4.768;2022-10-17T08:03:57;18.80;99.90
16315;DHT22;8266;52.150;4.768;2022-10-17T08:06:24;18.80;99.90
16315;DHT22;8266;52.150;4.768;2022-10-17T08:08:51;18.90;99.90
16315;DHT22;8266;52.150;4.768;2022-10-17T08:11:18;18.90;99.90
16315;DHT22;8266;52.150;4.768;2022-10-17T08:13:48;18.80;99.90
16315;DHT22;8266;52.150;4.768;2022-10-17T08:16:15;18.80;99.90
16315;DHT22;8266;52.150;4.768;2022-10-17T08:18:43;18.90;99.90
16315;DHT22;8266;52.150;4.768;2022-10-17T08:21:13;18.90;99.90
16315;DHT22;8266;52.150;4.768;2022-10-17T08:23:40;18.90;99.90
16315;DHT22;8266;52.150;4.768;2022-10-17T08:26:10;18.90;99.90
16315;DHT22;8266;52.150;4.768;2022-10-17T08:28:46;18.90;99.90
16315;DHT22;8266;52.150;4.768;2022-10-17T08:31:16;18.90;99.90
16315;DHT22;8266;52.150;4.768;2022-10-17T08:33:44;19.00;99.90
16315;DHT22;8266;52.150;4.768;2022-10-17T08:36:15;18.90;99.90
16315;DHT22;8266;52.150;4.768;2022-10-17T08:38:43;19.00;99.90
16315;DHT22;8266;52.150;4.768;2022-10-17T08:41:21;19.00;99.90
16315;DHT22;8266;52.150;4.768;2022-10-17T08:44:01;19.00;99.90
16315;DHT22;8266;52.150;4.768;2022-10-17T08:46:32;19.00;99.90
16315;DHT22;8266;52.150;4.768;2022-10-17T08:49:03;19.00;99.90
16315;DHT22;8266;52.150;4.768;2022-10-17T08:51:33;19.00;99.90
16315;DHT22;8266;52.150;4.768;2022-10-17T08:54:08;19.00;99.90
16315;DHT22;8266;52.150;4.768;2022-10-17T08:56:41;19.00;99.90
16315;DHT22;8266;52.150;4.768;2022-10-17T08:59:12;19.10;99.90
16315;DHT22;8266;52.150;4.768;2022-10-17T09:01:44;19.10;99.90
16315;DHT22;8266;52.150;4.768;2022-10-17T09:04:30;19.10;99.90
16315;DHT22;8266;52.150;4.768;2022-10-17T09:07:05;19.10;99.90
16315;DHT22;8266;52.150;4.768;2022-10-17T09:09:39;19.20;99.90
16315;DHT22;8266;52.150;4.768;2022-10-17T09:12:16;19.10;99.90
16315;DHT22;8266;52.150;4.768;2022-10-17T09:17:50;19.20;99.90
16315;DHT22;8266;52.150;4.768;2022-10-17T09:20:20;19.20;99.90
16315;DHT22;8266;52.150;4.768;2022-10-17T09:22:52;19.20;99.90
16315;DHT22;8266;52.150;4.768;2022-10-17T09:25:21;19.20;99.90
16315;DHT22;8266;52.150;4.768;2022-10-17T09:27:51;19.30;99.90
16315;DHT22;8266;52.150;4.768;2022-10-17T09:30:34;19.30;99.90
16315;DHT22;8266;52.150;4.768;2022-10-17T09:33:09;19.30;99.90
16315;DHT22;8266;52.150;4.768;2022-10-17T09:35:54;19.30;99.90
16315;DHT22;8266;52.150;4.768;2022-10-17T09:38:36;19.40;99.90
16315;DHT22;8266;52.150;4.768;2022-10-17T09:41:16;19.40;99.90
16315;DHT22;8266;52.150;4.768;2022-10-17T09:43:43;19.40;99.90
16315;DHT22;8266;52.150;4.768;2022-10-17T09:46:19;19.40;99.90
16315;DHT22;8266;52.150;4.768;2022-10-17T09:48:49;19.40;99.90
16315;DHT22;8266;52.150;4.768;2022-10-17T09:51:17;19.40;99.90
16315;DHT22;8266;52.150;4.768;2022-10-17T09:53:48;19.40;99.90
16315;DHT22;8266;52.150;4.768;2022-10-17T09:56:17;19.50;99.90
16315;DHT22;8266;52.150;4.768;2022-10-17T09:58:48;19.50;99.90
16315;DHT22;8266;52.150;4.768;2022-10-17T10:01:19;19.40;99.90
16315;DHT22;8266;52.150;4.768;2022-10-17T10:03:46;19.50;99.90
16315;DHT22;8266;52.150;4.768;2022-10-17T10:06:15;19.50;99.90
16315;DHT22;8266;52.150;4.768;2022-10-17T10:08:50;19.50;99.90
16315;DHT22;8266;52.150;4.768;2022-10-17T10:11:21;19.50;99.90
16315;DHT22;8266;52.150;4.768;2022-10-17T10:13:49;19.50;99.90
16315;DHT22;8266;52.150;4.768;2022-10-17T10:16:21;19.50;99.90
16315;DHT22;8266;52.150;4.768;2022-10-17T10:18:49;19.50;99.90
16315;DHT22;8266;52.150;4.768;2022-10-17T10:21:18;19.50;99.90
16315;DHT22;8266;52.150;4.768;2022-10-17T10:24:03;19.50;99.90
16315;DHT22;8266;52.150;4.768;2022-10-17T10:26:34;19.50;99.90
16315;DHT22;8266;52.150;4.768;2022-10-17T10:29:15;19.50;99.90
16315;DHT22;8266;52.150;4.768;2022-10-17T10:31:46;19.50;99.90
16315;DHT22;8266;52.150;4.768;2022-10-17T10:34:20;19.50;99.90
16315;DHT22;8266;52.150;4.768;2022-10-17T10:36:54;19.50;99.90
16315;DHT22;8266;52.150;4.768;2022-10-17T10:39:45;19.50;99.90
16315;DHT22;8266;52.150;4.768;2022-10-17T10:42:21;19.50;99.90
16315;DHT22;8266;52.150;4.768;2022-10-17T10:44:49;19.40;99.90
16315;DHT22;8266;52.150;4.768;2022-10-17T10:47:21;19.40;99.90
16315;DHT22;8266;52.150;4.768;2022-10-17T10:49:51;19.40;99.90
16315;DHT22;8266;52.150;4.768;2022-10-17T10:52:30;19.40;99.90
16315;DHT22;8266;52.150;4.768;2022-10-17T10:55:05;19.40;99.90
16315;DHT22;8266;52.150;4.768;2022-10-17T10:57:40;19.40;99.90
16315;DHT22;8266;52.150;4.768;2022-10-17T11:00:14;19.40;99.90
16315;DHT22;8266;52.150;4.768;2022-10-17T11:02:47;19.40;99.90
16315;DHT22;8266;52.150;4.768;2022-10-17T11:05:22;19.40;99.90
16315;DHT22;8266;52.150;4.768;2022-10-17T11:07:54;19.40;99.90
16315;DHT22;8266;52.150;4.768;2022-10-17T11:10:30;19.30;99.90
16315;DHT22;8266;52.150;4.768;2022-10-17T11:13:04;19.40;99.90
16315;DHT22;8266;52.150;4.768;2022-10-17T11:15:35;19.40;99.90
16315;DHT22;8266;52.150;4.768;2022-10-17T11:18:14;19.40;99.90
16315;DHT22;8266;52.150;4.768;2022-10-17T11:20:51;19.40;99.90
16315;DHT22;8266;52.150;4.768;2022-10-17T11:23:24;19.40;99.90
16315;DHT22;8266;52.150;4.768;2022-10-17T11:25:59;19.40;99.90
16315;DHT22;8266;52.150;4.768;2022-10-17T11:28:28;19.30;99.90
16315;DHT22;8266;52.150;4.768;2022-10-17T11:31:00;19.30;99.90
16315;DHT22;8266;52.150;4.768;2022-10-17T11:33:36;19.30;99.90
16315;DHT22;8266;52.150;4.768;2022-10-17T11:36:07;19.20;99.90
16315;DHT22;8266;52.150;4.768;2022-10-17T11:38:40;19.20;99.90
16315;DHT22;8266;52.150;4.768;2022-10-17T11:41:16;19.20;99.90
16315;DHT22;8266;52.150;4.768;2022-10-17T11:43:49;19.20;99.90
16315;DHT22;8266;52.150;4.768;2022-10-17T11:46:20;19.20;99.90
16315;DHT22;8266;52.150;4.768;2022-10-17T11:48:57;19.20;99.90
16315;DHT22;8266;52.150;4.768;2022-10-17T11:51:24;19.20;99.90
16315;DHT22;8266;52.150;4.768;2022-10-17T11:53:58;19.20;99.90
16315;DHT22;8266;52.150;4.768;2022-10-17T11:56:36;19.20;99.90
16315;DHT22;8266;52.150;4.768;2022-10-17T11:59:31;19.20;99.90
16315;DHT22;8266;52.150;4.768;2022-10-17T12:02:10;19.20;99.90
16315;DHT22;8266;52.150;4.768;2022-10-17T12:04:51;19.20;99.90
16315;DHT22;8266;52.150;4.768;2022-10-17T12:07:33;19.30;99.90
16315;DHT22;8266;52.150;4.768;2022-10-17T12:10:18;19.30;99.90
16315;DHT22;8266;52.150;4.768;2022-10-17T12:12:47;19.40;99.90
16315;DHT22;8266;52.150;4.768;2022-10-17T12:15:29;19.40;99.90
16315;DHT22;8266;52.150;4.768;2022-10-17T12:17:58;19.50;99.90
16315;DHT22;8266;52.150;4.768;2022-10-17T12:20:34;19.50;99.90
16315;DHT22;8266;52.150;4.768;2022-10-17T12:23:18;19.60;99.90
16315;DHT22;8266;52.150;4.768;2022-10-17T12:25:49;19.60;99.90
16315;DHT22;8266;52.150;4.768;2022-10-17T12:28:23;19.60;99.90
16315;DHT22;8266;52.150;4.768;2022-10-17T12:30:54;19.70;99.90
16315;DHT22;8266;52.150;4.768;2022-10-17T12:33:27;19.80;99.90
16315;DHT22;8266;52.150;4.768;2022-10-17T12:42:32;19.90;99.90
16315;DHT22;8266;52.150;4.768;2022-10-17T12:45:46;20.00;99.90
16315;DHT22;8266;52.150;4.768;2022-10-17T12:51:19;20.10;99.90
16315;DHT22;8266;52.150;4.768;2022-10-17T12:53:53;20.10;99.90
16315;DHT22;8266;52.150;4.768;2022-10-17T12:56:30;20.20;99.90
16315;DHT22;8266;52.150;4.768;2022-10-17T12:59:06;20.30;99.90
16315;DHT22;8266;52.150;4.768;2022-10-17T13:01:36;20.30;99.90
16315;DHT22;8266;52.150;4.768;2022-10-17T13:04:08;20.30;99.90
16315;DHT22;8266;52.150;4.768;2022-10-17T13:06:39;20.30;99.90
16315;DHT22;8266;52.150;4.768;2022-10-17T13:09:19;20.30;99.90
16315;DHT22;8266;52.150;4.768;2022-10-17T13:11:48;20.30;99.90
16315;DHT22;8266;52.150;4.768;2022-10-17T13:14:18;20.40;99.90
16315;DHT22;8266;52.150;4.768;2022-10-17T13:16:51;20.40;99.90
16315;DHT22;8266;52.150;4.768;2022-10-17T13:19:24;20.30;99.90
16315;DHT22;8266;52.150;4.768;2022-10-17T13:22:13;20.40;99.90
16315;DHT22;8266;52.150;4.768;2022-10-17T13:24:44;20.30;99.90
16315;DHT22;8266;52.150;4.768;2022-10-17T13:27:23;20.30;99.90
16315;DHT22;8266;52.150;4.768;2022-10-17T13:29:52;20.40;99.90
16315;DHT22;8266;52.150;4.768;2022-10-17T13:32:21;20.30;99.90
16315;DHT22;8266;52.150;4.768;2022-10-17T13:35:05;20.30;99.90
16315;DHT22;8266;52.150;4.768;2022-10-17T13:37:33;20.30;99.90
16315;DHT22;8266;52.150;4.768;2022-10-17T13:40:00;20.30;99.90
16315;DHT22;8266;52.150;4.768;2022-10-17T13:42:30;20.30;99.90
16315;DHT22;8266;52.150;4.768;2022-10-17T13:45:15;20.30;99.90
16315;DHT22;8266;52.150;4.768;2022-10-17T13:47:46;20.30;99.90
16315;DHT22;8266;52.150;4.768;2022-10-17T13:50:20;20.30;99.90
16315;DHT22;8266;52.150;4.768;2022-10-17T13:52:49;20.30;99.90
16315;DHT22;8266;52.150;4.768;2022-10-17T13:55:30;20.30;99.90
16315;DHT22;8266;52.150;4.768;2022-10-17T13:58:09;20.30;99.90
16315;DHT22;8266;52.150;4.768;2022-10-17T14:00:37;20.20;99.90
16315;DHT22;8266;52.150;4.768;2022-10-17T14:03:05;20.30;99.90
16315;DHT22;8266;52.150;4.768;2022-10-17T14:05:32;20.30;99.90
16315;DHT22;8266;52.150;4.768;2022-10-17T14:08:01;20.30;99.90
16315;DHT22;8266;52.150;4.768;2022-10-17T14:10:32;20.40;99.90
16315;DHT22;8266;52.150;4.768;2022-10-17T14:13:00;20.40;99.90
16315;DHT22;8266;52.150;4.768;2022-10-17T14:15:30;20.40;99.90
16315;DHT22;8266;52.150;4.768;2022-10-17T14:18:02;20.40;99.90
16315;DHT22;8266;52.150;4.768;2022-10-17T14:20:30;20.50;99.90
16315;DHT22;8266;52.150;4.768;2022-10-17T14:22:59;20.50;99.90
16315;DHT22;8266;52.150;4.768;2022-10-17T14:25:28;20.60;99.90
16315;DHT22;8266;52.150;4.768;2022-10-17T14:28:00;20.70;99.90
16315;DHT22;8266;52.150;4.768;2022-10-17T14:30:33;20.70;99.90
16315;DHT22;8266;52.150;4.768;2022-10-17T14:33:06;20.80;99.90
16315;DHT22;8266;52.150;4.768;2022-10-17T14:35:34;20.80;99.90
16315;DHT22;8266;52.150;4.768;2022-10-17T14:38:03;20.80;99.90
16315;DHT22;8266;52.150;4.768;2022-10-17T14:40:31;20.90;99.90
16315;DHT22;8266;52.150;4.768;2022-10-17T14:43:01;20.80;99.90
16315;DHT22;8266;52.150;4.768;2022-10-17T14:45:31;20.90;99.90
16315;DHT22;8266;52.150;4.768;2022-10-17T14:48:04;20.80;99.90
16315;DHT22;8266;52.150;4.768;2022-10-17T14:50:32;20.80;99.90
16315;DHT22;8266;52.150;4.768;2022-10-17T14:53:03;20.80;99.90
16315;DHT22;8266;52.150;4.768;2022-10-17T14:55:34;20.80;99.90
16315;DHT22;8266;52.150;4.768;2022-10-17T14:58:14;20.70;99.90
16315;DHT22;8266;52.150;4.768;2022-10-17T15:00:42;20.70;99.90
16315;DHT22;8266;52.150;4.768;2022-10-17T15:03:10;20.60;99.90
16315;DHT22;8266;52.150;4.768;2022-10-17T15:05:38;20.70;99.90
16315;DHT22;8266;52.150;4.768;2022-10-17T15:08:11;20.60;99.90
16315;DHT22;8266;52.150;4.768;2022-10-17T15:10:39;20.60;99.90
16315;DHT22;8266;52.150;4.768;2022-10-17T15:13:08;20.60;99.90
16315;DHT22;8266;52.150;4.768;2022-10-17T15:15:36;20.60;99.90
16315;DHT22;8266;52.150;4.768;2022-10-17T15:18:04;20.60;99.90
16315;DHT22;8266;52.150;4.768;2022-10-17T15:20:33;20.60;99.90
16315;DHT22;8266;52.150;4.768;2022-10-17T15:23:01;20.60;99.90
16315;DHT22;8266;52.150;4.768;2022-10-17T15:25:29;20.60;99.90
16315;DHT22;8266;52.150;4.768;2022-10-17T15:27:57;20.60;99.90
16315;DHT22;8266;52.150;4.768;2022-10-17T15:30:26;20.60;99.90
16315;DHT22;8266;52.150;4.768;2022-10-17T15:32:57;20.50;99.90
16315;DHT22;8266;52.150;4.768;2022-10-17T15:35:25;20.50;99.90
16315;DHT22;8266;52.150;4.768;2022-10-17T15:37:53;20.50;99.90
16315;DHT22;8266;52.150;4.768;2022-10-17T15:40:22;20.50;99.90
16315;DHT22;8266;52.150;4.768;2022-10-17T15:42:50;20.40;99.90
16315;DHT22;8266;52.150;4.768;2022-10-17T15:45:18;20.40;99.90
16315;DHT22;8266;52.150;4.768;2022-10-17T15:47:50;20.40;99.90
16315;DHT22;8266;52.150;4.768;2022-10-17T15:50:18;20.40;99.90
16315;DHT22;8266;52.150;4.768;2022-10-17T15:52:46;20.30;99.90
16315;DHT22;8266;52.150;4.768;2022-10-17T15:55:19;20.40;99.90
16315;DHT22;8266;52.150;4.768;2022-10-17T15:57:48;20.30;99.90
16315;DHT22;8266;52.150;4.768;2022-10-17T16:00:17;20.30;99.90
16315;DHT22;8266;52.150;4.768;2022-10-17T16:02:48;20.20;99.90
16315;DHT22;8266;52.150;4.768;2022-10-17T16:05:21;20.20;99.90
16315;DHT22;8266;52.150;4.768;2022-10-17T16:07:55;20.20;99.90
16315;DHT22;8266;52.150;4.768;2022-10-17T16:10:24;20.20;99.90
16315;DHT22;8266;52.150;4.768;2022-10-17T16:12:52;20.10;99.90
16315;DHT22;8266;52.150;4.768;2022-10-17T16:15:20;20.10;99.90
16315;DHT22;8266;52.150;4.768;2022-10-17T16:17:48;20.10;99.90
16315;DHT22;8266;52.150;4.768;2022-10-17T16:20:15;20.10;99.90
16315;DHT22;8266;52.150;4.768;2022-10-17T16:22:43;20.10;99.90